createdAt,value
2019-04-23T00:02:23.274Z,3.40
2019-04-23T00:04:52.827Z,3.80
2019-04-23T00:07:39.734Z,4.93
2019-04-23T00:10:05.772Z,3.57
2019-04-23T00:12:38.931Z,2.57
2019-04-23T00:20:09.440Z,3.50
2019-04-23T00:22:59.866Z,3.07
2019-04-23T00:31:06.337Z,4.83
2019-04-23T00:33:30.213Z,4.53
2019-04-23T00:36:05.263Z,2.60
2019-04-23T00:38:39.947Z,6.53
2019-04-23T00:41:09.333Z,4.83
2019-04-23T00:43:50.961Z,7.63
2019-04-23T00:46:22.277Z,2.97
2019-04-23T00:51:13.838Z,5.70
2019-04-23T00:53:44.204Z,5.07
2019-04-23T00:56:32.647Z,2.87
2019-04-23T00:58:51.220Z,4.53
2019-04-23T01:01:18.301Z,3.30
2019-04-23T01:03:56.404Z,8.17
2019-04-23T01:06:24.199Z,2.73
2019-04-23T01:09:00.069Z,4.53
2019-04-23T01:11:27.675Z,3.33
2019-04-23T01:13:53.048Z,3.83
2019-04-23T01:16:28.265Z,3.77
2019-04-23T01:19:17.718Z,6.07
2019-04-23T01:21:30.524Z,8.67
2019-04-23T01:24:23.211Z,5.63
2019-04-23T01:30:10.120Z,3.73
2019-04-23T01:32:44.044Z,2.80
2019-04-23T01:35:16.025Z,2.00
2019-04-23T01:37:41.121Z,8.47
2019-04-23T01:40:19.126Z,2.97
2019-04-23T01:43:00.007Z,1.70
2019-04-23T01:45:26.964Z,1.87
2019-04-23T01:47:50.037Z,4.07
2019-04-23T01:58:07.883Z,4.50
2019-04-23T02:03:06.012Z,8.13
2019-04-23T02:05:36.301Z,6.50
2019-04-23T02:08:07.824Z,3.47
2019-04-23T02:10:47.335Z,2.90
2019-04-23T02:13:16.534Z,4.60
2019-04-23T02:15:43.885Z,5.30
2019-04-23T02:18:17.870Z,2.13
2019-04-23T02:20:56.604Z,4.43
2019-04-23T02:26:26.153Z,5.70
2019-04-23T02:28:53.148Z,3.60
2019-04-23T02:36:32.493Z,5.07
2019-04-23T02:38:58.355Z,5.37
2019-04-23T02:44:16.736Z,7.17
2019-04-23T02:46:40.959Z,3.50
2019-04-23T02:49:17.583Z,7.47
2019-04-23T02:51:54.621Z,5.27
2019-04-23T02:54:37.512Z,4.40
2019-04-23T02:56:51.209Z,3.73
2019-04-23T02:59:42.723Z,3.03
2019-04-23T03:02:14.408Z,4.20
2019-04-23T03:04:35.083Z,4.10
2019-04-23T03:07:16.162Z,3.57
2019-04-23T03:12:19.516Z,3.40
2019-04-23T03:14:41.725Z,9.83
2019-04-23T03:17:11.175Z,5.10
2019-04-23T03:20:06.022Z,3.27
2019-04-23T03:22:35.451Z,4.53
2019-04-23T03:25:31.927Z,3.90
2019-04-23T03:27:50.840Z,4.17
2019-04-23T03:30:43.081Z,4.00
2019-04-23T03:38:13.959Z,3.50
2019-04-23T03:40:34.842Z,6.47
2019-04-23T03:43:19.927Z,2.63
2019-04-23T03:45:46.689Z,4.77
2019-04-23T03:48:17.911Z,6.93
2019-04-23T03:50:38.850Z,4.37
2019-04-23T03:53:25.557Z,5.70
2019-04-23T03:55:55.664Z,4.87
2019-04-23T03:58:28.308Z,6.27
2019-04-23T04:01:01.426Z,2.70
2019-04-23T04:03:50.638Z,7.33
2019-04-23T04:08:29.214Z,5.63
2019-04-23T04:16:10.696Z,5.57
2019-04-23T04:21:18.487Z,6.93
2019-04-23T04:24:01.324Z,3.90
2019-04-23T04:26:16.193Z,3.27
2019-04-23T04:28:48.831Z,3.23
2019-04-23T04:31:18.766Z,5.23
2019-04-23T04:34:00.722Z,4.73
2019-04-23T04:39:03.316Z,4.40
2019-04-23T04:41:36.300Z,4.07
2019-04-23T04:44:27.275Z,4.13
2019-04-23T04:46:39.653Z,5.03
2019-04-23T04:49:05.549Z,6.33
2019-04-23T04:51:39.590Z,5.50
2019-04-23T04:54:09.268Z,3.20
2019-04-23T04:56:34.249Z,3.63
2019-04-23T05:01:39.618Z,6.97
2019-04-23T05:06:56.901Z,4.33
2019-04-23T05:09:25.040Z,8.07
2019-04-23T05:12:01.150Z,6.47
2019-04-23T05:14:51.136Z,3.60
2019-04-23T05:19:45.699Z,3.83
2019-04-23T05:24:36.666Z,3.77
2019-04-23T05:29:33.823Z,3.60
2019-04-23T05:31:58.180Z,5.07
2019-04-23T05:34:38.623Z,7.17
2019-04-23T05:37:06.415Z,7.53
2019-04-23T05:42:10.657Z,6.37
2019-04-23T05:44:43.246Z,7.43
2019-04-23T05:47:17.028Z,6.07
2019-04-23T05:49:47.548Z,5.23
2019-04-23T05:52:19.080Z,4.20
2019-04-23T05:54:49.883Z,3.27
2019-04-23T05:57:13.733Z,4.77
2019-04-23T05:59:46.854Z,4.90
2019-04-23T06:02:17.058Z,5.17
2019-04-23T06:04:53.201Z,4.50
2019-04-23T06:12:25.187Z,4.93
2019-04-23T06:15:00.232Z,3.47
2019-04-23T06:17:25.440Z,6.20
2019-04-23T06:20:02.855Z,5.57
2019-04-23T06:22:36.708Z,5.93
2019-04-23T06:25:35.926Z,10.97
2019-04-23T06:27:35.562Z,6.47
2019-04-23T06:30:01.095Z,5.97
2019-04-23T06:32:56.491Z,5.97
2019-04-23T06:35:08.765Z,4.37
2019-04-23T06:40:12.143Z,4.87
2019-04-23T06:43:12.752Z,7.60
2019-04-23T06:45:37.795Z,4.03
2019-04-23T06:48:15.442Z,7.87
2019-04-23T06:50:54.568Z,6.10
2019-04-23T06:53:16.260Z,9.20
2019-04-23T06:55:49.237Z,5.20
2019-04-23T06:58:25.368Z,6.13
2019-04-23T07:00:58.729Z,7.70
2019-04-23T07:03:36.095Z,5.07
2019-04-23T07:11:22.875Z,5.53
2019-04-23T07:13:54.561Z,4.07
2019-04-23T07:16:18.721Z,5.07
2019-04-23T07:18:46.887Z,5.33
2019-04-23T07:21:22.098Z,8.40
2019-04-23T07:24:00.234Z,6.87
2019-04-23T07:26:36.051Z,5.97
2019-04-23T07:34:01.051Z,5.23
2019-04-23T07:36:34.215Z,6.77
2019-04-23T07:39:35.619Z,4.83
2019-04-23T07:45:01.868Z,6.97
2019-04-23T07:47:54.415Z,6.03
2019-04-23T07:50:33.106Z,5.23
2019-04-23T07:53:00.226Z,7.17
2019-04-23T07:57:59.772Z,8.60
2019-04-23T08:00:35.239Z,7.03
2019-04-23T08:03:17.731Z,5.70
2019-04-23T08:05:39.028Z,7.47
2019-04-23T08:08:15.040Z,6.30
2019-04-23T08:11:17.962Z,6.23
2019-04-23T08:13:33.692Z,9.47
2019-04-23T08:15:53.913Z,7.07
2019-04-23T08:18:40.008Z,6.00
2019-04-23T08:21:05.547Z,7.37
2019-04-23T08:23:56.961Z,6.80
2019-04-23T08:27:04.626Z,6.83
2019-04-23T08:29:30.971Z,5.70
2019-04-23T08:34:48.395Z,6.40
2019-04-23T08:37:15.036Z,8.07
2019-04-23T08:42:33.474Z,7.17
2019-04-23T08:48:01.301Z,7.73
2019-04-23T08:50:27.425Z,7.70
2019-04-23T08:53:03.733Z,6.13
2019-04-23T08:55:38.859Z,7.37
2019-04-23T08:58:07.901Z,7.33
2019-04-23T09:00:49.795Z,7.60
2019-04-23T09:03:18.818Z,6.60
2019-04-23T09:10:55.957Z,7.03
2019-04-23T09:20:55.260Z,8.43
2019-04-23T09:25:57.586Z,8.33
2019-04-23T09:31:17.316Z,7.03
2019-04-23T09:39:43.032Z,10.20
2019-04-23T09:42:38.537Z,9.17
2019-04-23T09:45:13.009Z,10.30
2019-04-23T09:48:01.694Z,7.83
2019-04-23T09:50:29.248Z,8.73
2019-04-23T09:53:09.778Z,6.90
2019-04-23T09:55:33.391Z,10.10
2019-04-23T09:58:08.286Z,10.97
2019-04-23T10:00:45.513Z,10.37
2019-04-23T10:03:01.623Z,8.23
2019-04-23T10:05:28.809Z,9.93
2019-04-23T10:07:54.448Z,9.67
2019-04-23T10:10:18.565Z,13.60
2019-04-23T10:12:50.194Z,9.33
2019-04-23T10:15:25.090Z,10.07
2019-04-23T10:17:52.122Z,11.10
2019-04-23T10:20:22.566Z,8.73
2019-04-23T10:22:52.584Z,9.80
2019-04-23T10:25:22.834Z,8.43
2019-04-23T10:27:58.640Z,11.13
2019-04-23T10:30:24.205Z,13.17
2019-04-23T10:33:13.823Z,11.03
2019-04-23T10:35:53.128Z,9.43
2019-04-23T10:38:20.380Z,10.63
2019-04-23T10:40:50.736Z,11.77
2019-04-23T10:43:22.666Z,8.77
2019-04-23T10:46:27.839Z,9.00
2019-04-23T10:49:52.188Z,8.73
2019-04-23T10:51:59.952Z,11.10
2019-04-23T10:57:17.307Z,10.77
2019-04-23T11:07:28.494Z,10.23
2019-04-23T11:09:57.081Z,9.93
2019-04-23T11:15:26.688Z,13.40
2019-04-23T11:25:31.533Z,11.43
2019-04-23T11:33:22.138Z,10.33
2019-04-23T11:35:39.441Z,10.00
2019-04-23T11:40:34.287Z,12.57
2019-04-23T11:48:33.271Z,11.27
2019-04-23T11:51:23.023Z,16.83
2019-04-23T11:53:19.523Z,11.27
2019-04-23T11:58:20.362Z,15.57
2019-04-23T12:01:38.686Z,12.73
2019-04-23T12:04:14.879Z,10.00
2019-04-23T12:07:00.331Z,8.60
2019-04-23T12:09:43.012Z,14.67
2019-04-23T12:12:23.760Z,10.53
2019-04-23T12:14:47.285Z,9.07
2019-04-23T12:17:26.418Z,9.80
2019-04-23T12:22:31.592Z,14.00
2019-04-23T12:29:54.546Z,13.67
2019-04-23T12:37:44.940Z,9.37
2019-04-23T12:45:27.123Z,10.33
2019-04-23T12:55:36.295Z,11.60
2019-04-23T12:58:01.880Z,10.57
2019-04-23T13:00:33.942Z,8.90
2019-04-23T13:03:02.764Z,12.97
2019-04-23T13:05:32.772Z,12.43
2019-04-23T13:08:07.980Z,14.37
2019-04-23T13:13:16.718Z,10.87
2019-04-23T13:15:39.952Z,9.87
2019-04-23T13:18:19.294Z,10.60
2019-04-23T13:20:42.556Z,9.87
2019-04-23T13:23:34.804Z,12.27
2019-04-23T13:26:18.341Z,8.73
2019-04-23T13:28:48.468Z,15.93
2019-04-23T13:31:16.299Z,13.03
2019-04-23T13:34:04.320Z,12.37
2019-04-23T13:36:32.285Z,13.03
2019-04-23T13:38:56.686Z,10.80
2019-04-23T13:44:08.865Z,13.80
2019-04-23T13:46:19.758Z,12.40
2019-04-23T13:48:56.211Z,9.80
2019-04-23T13:54:07.524Z,14.77
2019-04-23T13:56:56.236Z,13.07
2019-04-23T14:01:41.175Z,11.87
2019-04-23T14:04:22.088Z,13.30
2019-04-23T14:11:46.615Z,11.27
2019-04-23T14:14:39.120Z,11.93
2019-04-23T14:17:03.838Z,12.20
2019-04-23T14:19:22.640Z,14.17
2019-04-23T14:22:18.436Z,14.97
2019-04-23T14:24:38.491Z,17.47
2019-04-23T14:27:09.381Z,12.67
2019-04-23T14:29:39.045Z,13.43
2019-04-23T14:32:08.754Z,10.10
2019-04-23T14:34:40.853Z,15.40
2019-04-23T14:37:04.145Z,9.97
2019-04-23T14:39:41.073Z,11.20
2019-04-23T14:44:52.468Z,8.60
2019-04-23T14:47:24.357Z,10.80
2019-04-23T14:50:29.418Z,13.87
2019-04-23T14:52:50.627Z,11.37
2019-04-23T14:57:45.552Z,11.03
2019-04-23T15:00:09.358Z,14.27
2019-04-23T15:05:15.492Z,11.73
2019-04-23T15:07:34.708Z,12.93
2019-04-23T15:10:18.625Z,10.27
2019-04-23T15:12:39.997Z,9.80
2019-04-23T15:17:47.131Z,10.90
2019-04-23T15:20:21.080Z,9.30
2019-04-23T15:23:10.161Z,11.63
2019-04-23T15:30:17.421Z,9.07
2019-04-23T15:33:03.914Z,9.37
2019-04-23T15:35:29.535Z,11.03
2019-04-23T15:38:18.569Z,14.03
2019-04-23T15:40:23.294Z,9.80
2019-04-23T15:43:05.915Z,10.20
2019-04-23T15:45:24.366Z,10.33
2019-04-23T15:48:03.343Z,10.37
2019-04-23T15:50:43.227Z,13.93
2019-04-23T15:53:01.364Z,15.93
2019-04-23T15:55:27.557Z,10.47
2019-04-23T16:00:31.359Z,9.30
2019-04-23T16:02:37.234Z,10.23
2019-04-23T16:05:08.759Z,10.27
2019-04-23T16:07:54.908Z,9.80
2019-04-23T16:10:37.735Z,10.93
2019-04-23T16:13:13.310Z,12.70
2019-04-23T16:15:45.486Z,8.70
2019-04-23T16:18:35.486Z,7.97
2019-04-23T16:21:03.757Z,10.33
2019-04-23T16:23:33.798Z,10.23
2019-04-23T16:25:58.431Z,8.00
2019-04-23T16:28:52.045Z,10.10
2019-04-23T16:31:03.290Z,9.30
2019-04-23T16:33:44.036Z,10.00
2019-04-23T16:38:45.129Z,10.87
2019-04-23T16:41:20.023Z,10.60
2019-04-23T16:43:59.875Z,8.77
2019-04-23T16:46:19.565Z,8.20
2019-04-23T16:49:02.863Z,9.00
2019-04-23T16:51:24.578Z,8.17
2019-04-23T16:53:52.742Z,7.87
2019-04-23T16:56:42.016Z,11.23
2019-04-23T17:01:21.284Z,10.60
2019-04-23T17:04:03.828Z,12.77
2019-04-23T17:06:29.334Z,8.83
2019-04-23T17:09:01.788Z,11.87
2019-04-23T17:11:34.271Z,13.10
2019-04-23T17:14:10.218Z,10.87
2019-04-23T17:21:44.068Z,9.00
2019-04-23T17:24:21.146Z,8.57
2019-04-23T17:26:52.161Z,12.10
2019-04-23T17:31:44.836Z,9.17
2019-04-23T17:34:32.236Z,11.60
2019-04-23T17:37:13.963Z,8.70
2019-04-23T17:40:17.520Z,15.70
2019-04-23T17:43:01.614Z,11.40
2019-04-23T17:48:30.280Z,10.07
2019-04-23T17:51:09.556Z,9.50
2019-04-23T17:56:16.659Z,13.87
2019-04-23T18:01:20.321Z,8.57
2019-04-23T18:04:03.811Z,10.90
2019-04-23T18:08:49.376Z,9.83
2019-04-23T18:11:23.298Z,7.87
2019-04-23T18:14:00.072Z,11.40
2019-04-23T18:19:05.807Z,10.63
2019-04-23T18:21:50.689Z,13.97
2019-04-23T18:24:16.805Z,11.60
2019-04-23T18:27:08.313Z,9.50
2019-04-23T18:32:32.715Z,10.93
2019-04-23T18:35:15.351Z,9.30
2019-04-23T18:40:00.241Z,13.20
2019-04-23T18:42:40.799Z,8.97
2019-04-23T18:45:20.423Z,10.87
2019-04-23T18:47:47.414Z,11.27
2019-04-23T18:50:10.272Z,13.03
2019-04-23T18:53:02.315Z,9.27
2019-04-23T18:55:39.268Z,10.53
2019-04-23T18:58:03.746Z,8.83
2019-04-23T19:00:36.984Z,12.20
2019-04-23T19:03:21.044Z,15.10
2019-04-23T19:06:13.343Z,10.33
2019-04-23T19:08:58.286Z,9.50
2019-04-23T19:11:43.903Z,10.27
2019-04-23T19:14:14.675Z,9.73
2019-04-23T19:16:54.985Z,11.17
2019-04-23T19:19:12.765Z,13.43
2019-04-23T19:22:07.025Z,12.97
2019-04-23T19:24:15.819Z,9.97
2019-04-23T19:29:21.636Z,9.03
2019-04-23T19:32:14.205Z,12.27
2019-04-23T19:37:34.422Z,11.13
2019-04-23T19:39:45.402Z,10.87
2019-04-23T19:44:51.583Z,9.63
2019-04-23T19:49:48.454Z,10.80
2019-04-23T19:52:48.232Z,9.90
2019-04-23T19:57:35.353Z,11.33
2019-04-23T20:00:06.021Z,12.17
2019-04-23T20:02:55.366Z,9.43
2019-04-23T20:05:07.267Z,12.47
2019-04-23T20:09:55.160Z,10.53
2019-04-23T20:12:44.804Z,9.53
2019-04-23T20:15:00.223Z,12.03
2019-04-23T20:20:09.795Z,9.87
2019-04-23T20:22:48.588Z,12.23
2019-04-23T20:25:39.324Z,13.20
2019-04-23T20:27:52.485Z,14.30
2019-04-23T20:35:46.939Z,12.97
2019-04-23T20:43:22.616Z,11.83
2019-04-23T20:46:11.328Z,14.37
2019-04-23T20:48:32.532Z,11.03
2019-04-23T20:50:56.414Z,12.40
2019-04-23T20:53:36.126Z,14.27
2019-04-23T20:58:54.916Z,12.10
2019-04-23T21:04:17.786Z,10.70
2019-04-23T21:06:39.729Z,13.03
2019-04-23T21:11:47.912Z,12.77
2019-04-23T21:14:31.818Z,15.87
2019-04-23T21:16:40.883Z,11.70
2019-04-23T21:19:36.313Z,13.77
2019-04-23T21:22:09.320Z,12.70
2019-04-23T21:24:36.524Z,13.73
2019-04-23T21:27:29.226Z,11.20
2019-04-23T21:32:33.211Z,15.20
2019-04-23T21:35:04.486Z,11.50
2019-04-23T21:37:43.366Z,12.47
2019-04-23T21:40:56.311Z,13.37
2019-04-23T21:46:07.306Z,12.47
2019-04-23T21:48:33.912Z,18.47
2019-04-23T21:50:49.070Z,12.57
2019-04-23T21:53:15.228Z,16.57
2019-04-23T21:55:54.259Z,10.93
2019-04-23T21:58:29.698Z,13.03
2019-04-23T22:03:49.655Z,17.33
2019-04-23T22:06:04.468Z,14.83
2019-04-23T22:08:37.868Z,13.67
2019-04-23T22:11:24.983Z,13.93
2019-04-23T22:13:53.841Z,12.20
2019-04-23T22:16:16.276Z,14.33
2019-04-23T22:18:51.562Z,14.23
2019-04-23T22:21:14.298Z,14.90
2019-04-23T22:23:50.630Z,15.73
2019-04-23T22:26:14.628Z,14.37
2019-04-23T22:28:58.066Z,14.53
2019-04-23T22:33:56.146Z,16.13
2019-04-23T22:36:15.166Z,15.57
2019-04-23T22:41:30.357Z,12.10
2019-04-23T22:46:43.405Z,15.70
2019-04-23T22:49:17.987Z,12.17
2019-04-23T22:51:56.884Z,16.67
2019-04-23T22:56:44.352Z,14.47
2019-04-23T22:59:18.590Z,12.73
2019-04-23T23:01:56.945Z,15.10
2019-04-23T23:06:57.298Z,15.63
2019-04-23T23:12:00.204Z,14.87
2019-04-23T23:14:24.143Z,13.93
2019-04-23T23:19:31.667Z,14.50
2019-04-23T23:22:03.381Z,18.03
2019-04-23T23:24:32.092Z,17.63
2019-04-23T23:27:02.346Z,16.73
2019-04-23T23:29:28.269Z,13.93
2019-04-23T23:34:41.980Z,18.77
2019-04-23T23:37:07.185Z,16.80
2019-04-23T23:39:54.989Z,13.97
2019-04-23T23:42:09.813Z,16.87
2019-04-23T23:49:56.903Z,16.50
2019-04-23T23:52:12.633Z,15.73
2019-04-23T23:54:52.648Z,16.93
2019-04-23T23:57:32.266Z,14.40
